VTCT

Details ICAO VTCT (CEI)
Name Chiang Rai Intl
Region Thailand
Timezone Asia/Bangkok (UTC+7.0)
Plans Departing 35
Arriving 31
Stats Elevation 1,280 ft / 390 m (AMSL)
Location 19.952340° 99.882928°
Runways 1
Magnetic Variation 0.829° W
Sunrise 2017-12-12 23:47:46 UTC / 2017-12-13 06:47:46 Local
Sunset 2017-12-13 10:44:09 UTC / 2017-12-13 17:44:09 Local
Advertisement - Login to hide

Runways

ID Width Length Bearing (true) Bearing (mag) Surface Threshold Offset Overrun Length
03 148 ft / 45 m 9,879 ft / 3,011 m 28.87° 29.70° Asphalt 0 ft / 0 m 197 ft / 60 m
21 148 ft / 45 m 9,879 ft / 3,011 m 208.87° 209.70° Asphalt 0 ft / 0 m 197 ft / 60 m

Approach Navaids

Runway Type Ident Frequency Range Bearing (true) Bearing (mag) Slope Elevation
03 Localiser ICTR 109.50 MHz 18 nm / 33 km 28.87° 29.70° - 1,275 ft / 389 m (AMSL)
03 Glidescope ICTR 109.50 MHz 10 nm / 19 km 28.87° 29.70° 3.00° 1,280 ft / 390 m (AMSL)
03 DME ICTR 109.50 MHz 18 nm / 33 km - - - 1,280 ft / 390 m (AMSL)

Map

Weather


0- 5 10 15 20 25 30 35+ Temperature / ° C

Clouds and Precipitation
Forecast for 2017-12-13 00:00 UTC. Updated an hour ago

Ground ~20,000 ft ~40,000 ft Winds

METAR

VTCT 122200Z 00000KT CAVOK 19/19 Q1012

TAF

TAF VTCT 121700Z 1218/1324 18005KT 9999 FEW030

Frequencies

Tower 118.40 MHz TWR
Approach 120.05 MHz APP
Warning: Do not use this data for real-world aviation or navigation. No guarantee of current accuracy is given.